Time;durP1;ratioP1;P1;durP2;ratioP2;P2;SDS_P1;SDS_P2;PMS_P1;PMS_P2;Temp;Humidity;BMP_temperature;BMP_pressure;BME280_temperature;BME280_humidity;BME280_pressure;Samples;Min_cycle;Max_cycle;Signal;HPM_P1;HPM_P2
2021/03/02 00:00:55;;;;;;;;;;;;;;;;;;4936237;29;20291;-67
2021/03/02 00:03:21;;;;;;;;;;;;;;;;;;4944042;28;19960;-67
2021/03/02 00:05:48;;;;;;;;;;;;;;;;;;4951353;29;19946;-69
2021/03/02 00:08:14;;;;;;;;;;;;;;;;;;4953559;29;20307;-67
2021/03/02 00:10:42;;;;;;;;;;;;;;;;;;4937360;29;19931;-67
2021/03/02 00:13:09;;;;;;;;;;;;;;;;;;4953027;28;19926;-67
2021/03/02 00:15:35;;;;;;;;;;;;;;;;;;4945452;28;19931;-67
2021/03/02 00:18:02;;;;;;;;;;;;;;;;;;4945184;29;19931;-67
2021/03/02 00:20:28;;;;;;;;;;;;;;;;;;4953866;28;20395;-67
2021/03/02 00:22:55;;;;;;;;;;;;;;;;;;4944480;28;19963;-67
2021/03/02 00:25:21;;;;;;;;;;;;;;;;;;4950196;28;19927;-67
2021/03/02 00:27:48;;;;;;;;;;;;;;;;;;4943086;29;20355;-67
2021/03/02 00:30:14;;;;;;;;;;;;;;;;;;4949706;28;19938;-67
2021/03/02 00:32:40;;;;;;;;;;;;;;;;;;4939515;28;19938;-67
2021/03/02 00:35:07;;;;;;;;;;;;;;;;;;4935964;29;19926;-67
2021/03/02 00:37:33;;;;;;;;;;;;;;;;;;4944203;29;19993;-67
2021/03/02 00:40:00;;;;;;;;;;;;;;;;;;4942569;29;20402;-67
2021/03/02 00:42:26;;;;;;;;;;;;;;;;;;4946053;28;19927;-67
2021/03/02 00:44:53;;;;;;;;;;;;;;;;;;4937046;29;19982;-67
2021/03/02 00:47:19;;;;;;;;;;;;;;;;;;4945817;29;19927;-67
2021/03/02 00:49:46;;;;;;;;;;;;;;;;;;4940172;29;20290;-67
2021/03/02 00:52:13;;;;;;;;;;;;;;;;;;4949151;29;20396;-67
2021/03/02 00:54:39;;;;;;;;;;;;;;;;;;4951819;29;20349;-67
2021/03/02 00:57:05;;;;;;;;;;;;;;;;;;4947396;29;19927;-66
2021/03/02 00:59:32;;;;;;;;;;;;;;;;;;4945832;28;20387;-67
2021/03/02 01:01:58;;;;;;;;;;;;;;;;;;4946477;28;19934;-67
2021/03/02 01:04:25;;;;;;;;;;;;;;;;;;4958336;28;19927;-67
2021/03/02 01:06:51;;;;;;;;;;;;;;;;;;4943966;28;20314;-66
2021/03/02 01:09:18;;;;;;;;;;;;;;;;;;4946681;28;19930;-67
2021/03/02 01:11:46;;;;;;;;;;;;;;;;;;4953113;29;19926;-67
2021/03/02 01:14:13;;;;;;;;;;;;;;;;;;4952291;28;19926;-67
2021/03/02 01:16:39;;;;;;;;;;;;;;;;;;4952405;28;19938;-68
2021/03/02 01:19:05;;;;;;;;;;;;;;;;;;4972592;23;19949;-70
2021/03/02 01:21:32;;;;;;;;;;;;;;;;;;4974488;28;20022;-71
2021/03/02 01:23:58;;;;;;;;;;;;;;;;;;4973704;28;20433;-70
2021/03/02 01:26:25;;;;;;;;;;;;;;;;;;4973945;28;19937;-70
2021/03/02 01:28:51;;;;;;;;;;;;;;;;;;4968974;28;19957;-71
2021/03/02 01:31:18;;;;;;;;;;;;;;;;;;4973948;23;19936;-66
2021/03/02 01:33:44;;;;;;;;;;;;;;;;;;4935295;29;19927;-66
2021/03/02 01:36:11;;;;;;;;;;;;;;;;;;4934888;29;20329;-67
2021/03/02 01:38:38;;;;;;;;;;;;;;;;;;4931214;29;19926;-67
2021/03/02 01:41:05;;;;;;;;;;;;;;;;;;4938811;28;19962;-66
2021/03/02 01:43:31;;;;;;;;;;;;;;;;;;4937438;29;19926;-67
2021/03/02 01:45:58;;;;;;;;;;;;;;;;;;4936825;29;19926;-66
2021/03/02 01:48:24;;;;;;;;;;;;;;;;;;4935830;29;19954;-66
2021/03/02 01:50:50;;;;;;;;;;;;;;;;;;4934303;29;19935;-67
2021/03/02 01:53:17;;;;;;;;;;;;;;;;;;4939480;29;19927;-66
2021/03/02 01:55:43;;;;;;;;;;;;;;;;;;4934835;29;19931;-66
2021/03/02 01:58:10;;;;;;;;;;;;;;;;;;4934223;29;19934;-66
2021/03/02 02:00:36;;;;;;;;;;;;;;;;;;4937251;29;19934;-66
2021/03/02 02:03:03;;;;;;;;;;;;;;;;;;4934420;29;19935;-69
2021/03/02 02:05:29;;;;;;;;;;;;;;;;;;4934748;29;20295;-67
2021/03/02 02:07:56;;;;;;;;;;;;;;;;;;4934653;29;19930;-67
2021/03/02 02:10:22;;;;;;;;;;;;;;;;;;4935692;29;19926;-67
2021/03/02 02:12:49;;;;;;;;;;;;;;;;;;4936144;29;19927;-67
2021/03/02 02:15:15;;;;;;;;;;;;;;;;;;4935417;29;19933;-68
2021/03/02 02:17:42;;;;;;;;;;;;;;;;;;4936247;29;19927;-67
2021/03/02 02:20:08;;;;;;;;;;;;;;;;;;4937386;29;19931;-68
2021/03/02 02:22:34;;;;;;;;;;;;;;;;;;4934705;29;19927;-67
2021/03/02 02:25:01;;;;;;;;;;;;;;;;;;4934902;29;20023;-67
2021/03/02 02:27:27;;;;;;;;;;;;;;;;;;4934338;29;19927;-65
2021/03/02 02:29:54;;;;;;;;;;;;;;;;;;4937099;29;19927;-65
2021/03/02 02:32:20;;;;;;;;;;;;;;;;;;4934572;29;19927;-65
2021/03/02 02:34:47;;;;;;;;;;;;;;;;;;4934235;29;19926;-68
2021/03/02 02:37:13;;;;;;;;;;;;;;;;;;4934241;29;19931;-67
2021/03/02 02:39:40;;;;;;;;;;;;;;;;;;4932871;29;19938;-65
2021/03/02 02:42:06;;;;;;;;;;;;;;;;;;4933674;29;20343;-67
2021/03/02 02:44:33;;;;;;;;;;;;;;;;;;4934572;29;19930;-67
2021/03/02 02:46:59;;;;;;;;;;;;;;;;;;4936393;29;19934;-67
2021/03/02 02:49:26;;;;;;;;;;;;;;;;;;4945934;29;19926;-67
2021/03/02 02:51:52;;;;;;;;;;;;;;;;;;4940151;29;20191;-73
2021/03/02 02:54:19;;;;;;;;;;;;;;;;;;4940637;29;19927;-67
2021/03/02 02:56:45;;;;;;;;;;;;;;;;;;4947589;29;19934;-67
2021/03/02 02:59:12;;;;;;;;;;;;;;;;;;4950372;29;19932;-67
2021/03/02 03:01:38;;;;;;;;;;;;;;;;;;4937938;29;19975;-67
2021/03/02 03:04:05;;;;;;;;;;;;;;;;;;4940777;29;20298;-68
2021/03/02 03:06:31;;;;;;;;;;;;;;;;;;4944646;29;19927;-69
2021/03/02 03:08:58;;;;;;;;;;;;;;;;;;4941517;29;19934;-67
2021/03/02 03:11:24;;;;;;;;;;;;;;;;;;4944930;29;19931;-67
2021/03/02 03:13:51;;;;;;;;;;;;;;;;;;4946955;29;19927;-67
2021/03/02 03:16:17;;;;;;;;;;;;;;;;;;4940888;29;20303;-67
2021/03/02 03:18:43;;;;;;;;;;;;;;;;;;4940070;29;19931;-68
2021/03/02 03:21:10;;;;;;;;;;;;;;;;;;4946862;29;19927;-67
2021/03/02 03:23:36;;;;;;;;;;;;;;;;;;4937483;29;19927;-67
2021/03/02 03:26:03;;;;;;;;;;;;;;;;;;4947009;29;19941;-67
2021/03/02 03:28:29;;;;;;;;;;;;;;;;;;4967441;29;19911;-68
2021/03/02 03:30:56;;;;;;;;;;;;;;;;;;4948290;29;19927;-67
2021/03/02 03:33:22;;;;;;;;;;;;;;;;;;4955705;29;19927;-68
2021/03/02 03:35:49;;;;;;;;;;;;;;;;;;4946604;29;19934;-67
2021/03/02 03:38:15;;;;;;;;;;;;;;;;;;4938375;29;19982;-67
2021/03/02 03:40:42;;;;;;;;;;;;;;;;;;4956004;29;19927;-68
2021/03/02 03:43:08;;;;;;;;;;;;;;;;;;4950484;29;19938;-67
2021/03/02 03:45:34;;;;;;;;;;;;;;;;;;4939073;29;20045;-67
2021/03/02 03:48:01;;;;;;;;;;;;;;;;;;4938453;29;19926;-67
2021/03/02 03:50:27;;;;;;;;;;;;;;;;;;4937395;29;19927;-67
2021/03/02 03:52:54;;;;;;;;;;;;;;;;;;4938819;29;19934;-67
2021/03/02 03:55:20;;;;;;;;;;;;;;;;;;4942490;29;19927;-67
2021/03/02 03:57:47;;;;;;;;;;;;;;;;;;4937315;29;20336;-66
2021/03/02 04:00:13;;;;;;;;;;;;;;;;;;4936425;28;19939;-67
2021/03/02 04:02:40;;;;;;;;;;;;;;;;;;4937052;29;19937;-67
2021/03/02 04:05:06;;;;;;;;;;;;;;;;;;4937794;29;19982;-67
2021/03/02 04:07:33;;;;;;;;;;;;;;;;;;4940651;29;19931;-67
2021/03/02 04:09:59;;;;;;;;;;;;;;;;;;4936768;29;19927;-67
2021/03/02 04:12:26;;;;;;;;;;;;;;;;;;4935900;29;19927;-67
2021/03/02 04:14:52;;;;;;;;;;;;;;;;;;4941017;29;20273;-67
2021/03/02 04:17:19;;;;;;;;;;;;;;;;;;4937036;29;19927;-67
2021/03/02 04:19:45;;;;;;;;;;;;;;;;;;4939182;29;19926;-68
2021/03/02 04:22:11;;;;;;;;;;;;;;;;;;4936394;29;19927;-67
2021/03/02 04:24:38;;;;;;;;;;;;;;;;;;4943614;29;19926;-67
2021/03/02 04:27:04;;;;;;;;;;;;;;;;;;4929332;29;19927;-67
2021/03/02 04:29:31;;;;;;;;;;;;;;;;;;4938334;29;19927;-67
2021/03/02 04:31:57;;;;;;;;;;;;;;;;;;4941911;29;19933;-67
2021/03/02 04:34:24;;;;;;;;;;;;;;;;;;4936794;29;19934;-67
2021/03/02 04:36:50;;;;;;;;;;;;;;;;;;4946070;29;19926;-67
2021/03/02 04:39:17;;;;;;;;;;;;;;;;;;4938275;29;19926;-67
2021/03/02 04:41:43;;;;;;;;;;;;;;;;;;4941374;29;20264;-67
2021/03/02 04:44:10;;;;;;;;;;;;;;;;;;4935825;29;19934;-67
2021/03/02 04:46:36;;;;;;;;;;;;;;;;;;4939015;29;19982;-67
2021/03/02 04:49:03;;;;;;;;;;;;;;;;;;4938397;29;19938;-67
2021/03/02 04:51:29;;;;;;;;;;;;;;;;;;4943219;29;19974;-67
2021/03/02 04:53:55;;;;;;;;;;;;;;;;;;4942150;29;19933;-67
2021/03/02 04:56:22;;;;;;;;;;;;;;;;;;4948000;29;19930;-66
2021/03/02 04:58:48;;;;;;;;;;;;;;;;;;4938607;29;19927;-67
2021/03/02 05:01:15;;;;;;;;;;;;;;;;;;4935644;29;19933;-67
2021/03/02 05:03:41;;;;;;;;;;;;;;;;;;4935778;29;20326;-67
2021/03/02 05:06:08;;;;;;;;;;;;;;;;;;4928594;29;19982;-68
2021/03/02 05:08:34;;;;;;;;;;;;;;;;;;4940871;29;19927;-67
2021/03/02 05:11:01;;;;;;;;;;;;;;;;;;4937599;29;20284;-68
2021/03/02 05:13:27;;;;;;;;;;;;;;;;;;4942912;29;20015;-67
2021/03/02 05:15:54;;;;;;;;;;;;;;;;;;4944738;29;19938;-67
2021/03/02 05:18:20;;;;;;;;;;;;;;;;;;4937195;29;19934;-67
2021/03/02 05:20:47;;;;;;;;;;;;;;;;;;4936977;29;20331;-67
2021/03/02 05:23:13;;;;;;;;;;;;;;;;;;4934035;29;19931;-67
2021/03/02 05:25:40;;;;;;;;;;;;;;;;;;4938084;29;19937;-67
2021/03/02 05:28:06;;;;;;;;;;;;;;;;;;4935098;29;19927;-67
2021/03/02 05:30:32;;;;;;;;;;;;;;;;;;4935554;29;19931;-67
2021/03/02 05:32:59;;;;;;;;;;;;;;;;;;4934765;29;19933;-69
2021/03/02 05:35:25;;;;;;;;;;;;;;;;;;4936538;29;20294;-67
2021/03/02 05:37:52;;;;;;;;;;;;;;;;;;4938993;29;19930;-67
2021/03/02 05:40:18;;;;;;;;;;;;;;;;;;4942554;29;19933;-67
2021/03/02 05:42:45;;;;;;;;;;;;;;;;;;4936325;29;19952;-67
2021/03/02 05:45:11;;;;;;;;;;;;;;;;;;4935621;29;19933;-67
2021/03/02 05:47:38;;;;;;;;;;;;;;;;;;4934894;29;19931;-67
2021/03/02 05:50:04;;;;;;;;;;;;;;;;;;4945277;29;19933;-67
2021/03/02 05:52:31;;;;;;;;;;;;;;;;;;4939787;29;20304;-67
2021/03/02 05:54:57;;;;;;;;;;;;;;;;;;4935965;29;19927;-67
2021/03/02 05:57:24;;;;;;;;;;;;;;;;;;4938050;29;20338;-67
2021/03/02 05:59:50;;;;;;;;;;;;;;;;;;4934956;29;20036;-67
2021/03/02 06:02:17;;;;;;;;;;;;;;;;;;4934779;29;19934;-67
2021/03/02 06:04:43;;;;;;;;;;;;;;;;;;4946784;29;20008;-67
2021/03/02 06:07:10;;;;;;;;;;;;;;;;;;4936257;29;19927;-67
2021/03/02 06:09:36;;;;;;;;;;;;;;;;;;4934476;29;19939;-67
2021/03/02 06:12:03;;;;;;;;;;;;;;;;;;4937502;29;19986;-67
2021/03/02 06:14:32;;;;;;;;;;;;;;;;;;4936956;29;19927;-67
2021/03/02 06:16:58;;;;;;;;;;;;;;;;;;4935603;29;20298;-67
2021/03/02 06:19:24;;;;;;;;;;;;;;;;;;4945166;29;19927;-68
2021/03/02 06:21:51;;;;;;;;;;;;;;;;;;4940260;29;19931;-68
2021/03/02 06:24:17;;;;;;;;;;;;;;;;;;4936266;29;20438;-69
2021/03/02 06:26:46;;;;;;;;;;;;;;;;;;4938734;29;19927;-69
2021/03/02 06:29:13;;;;;;;;;;;;;;;;;;4939584;29;19931;-68
2021/03/02 06:31:39;;;;;;;;;;;;;;;;;;4938298;29;19931;-73
2021/03/02 06:34:06;;;;;;;;;;;;;;;;;;4938519;29;20371;-68
2021/03/02 06:36:32;;;;;;;;;;;;;;;;;;4938454;29;19930;-68
2021/03/02 06:38:59;;;;;;;;;;;;;;;;;;4938421;29;20405;-69
2021/03/02 06:41:25;;;;;;;;;;;;;;;;;;4938631;29;19950;-68
2021/03/02 06:43:52;;;;;;;;;;;;;;;;;;4930636;29;20202;-69
2021/03/02 06:46:20;;;;;;;;;;;;;;;;;;4937997;29;20391;-70
2021/03/02 06:48:47;;;;;;;;;;;;;;;;;;4935105;29;19927;-69
2021/03/02 06:51:13;;;;;;;;;;;;;;;;;;4929165;29;19950;-69
2021/03/02 06:53:41;;;;;;;;;;;;;;;;;;4926392;29;19931;-67
2021/03/02 06:56:07;;;;;;;;;;;;;;;;;;4928408;29;19927;-67
2021/03/02 06:58:34;;;;;;;;;;;;;;;;;;4927689;29;19933;-66
2021/03/02 07:01:01;;;;;;;;;;;;;;;;;;4924677;29;19927;-67
2021/03/02 07:03:27;;;;;;;;;;;;;;;;;;4925823;29;19931;-67
2021/03/02 07:05:54;;;;;;;;;;;;;;;;;;4928052;29;20183;-67
2021/03/02 07:08:21;;;;;;;;;;;;;;;;;;4928170;29;19938;-68
2021/03/02 07:10:50;;;;;;;;;;;;;;;;;;4922568;29;19931;-68
2021/03/02 07:13:16;;;;;;;;;;;;;;;;;;4922808;29;19986;-69
2021/03/02 07:15:45;;;;;;;;;;;;;;;;;;4923405;29;19927;-69
2021/03/02 07:18:13;;;;;;;;;;;;;;;;;;4924713;29;20334;-68
2021/03/02 07:20:40;;;;;;;;;;;;;;;;;;4924058;29;19973;-68
2021/03/02 07:23:06;;;;;;;;;;;;;;;;;;4923462;29;19927;-68
2021/03/02 07:25:33;;;;;;;;;;;;;;;;;;4927465;29;19986;-68
2021/03/02 07:27:59;;;;;;;;;;;;;;;;;;4926585;29;19949;-68
2021/03/02 07:30:26;;;;;;;;;;;;;;;;;;4928162;29;20014;-67
2021/03/02 07:32:52;;;;;;;;;;;;;;;;;;4955357;23;19930;-68
2021/03/02 07:35:19;;;;;;;;;;;;;;;;;;4945205;29;19926;-69
2021/03/02 07:37:45;;;;;;;;;;;;;;;;;;4945820;28;20011;-70
2021/03/02 07:40:12;;;;;;;;;;;;;;;;;;4948222;28;20345;-70
2021/03/02 07:42:38;;;;;;;;;;;;;;;;;;4949382;28;19926;-67
2021/03/02 07:45:04;;;;;;;;;;;;;;;;;;4941900;29;19934;-68
2021/03/02 07:47:31;;;;;;;;;;;;;;;;;;4943140;29;20314;-68
2021/03/02 07:49:57;;;;;;;;;;;;;;;;;;4947439;28;19931;-69
2021/03/02 07:52:24;;;;;;;;;;;;;;;;;;4947132;29;19926;-69
2021/03/02 07:54:50;;;;;;;;;;;;;;;;;;4945459;29;20377;-68
2021/03/02 07:57:18;;;;;;;;;;;;;;;;;;4949889;28;19926;-67
2021/03/02 07:59:44;;;;;;;;;;;;;;;;;;4948038;28;19926;-68
2021/03/02 08:02:11;;;;;;;;;;;;;;;;;;4942515;28;19937;-70
2021/03/02 08:04:37;;;;;;;;;;;;;;;;;;4947426;29;19933;-68
2021/03/02 08:07:04;;;;;;;;;;;;;;;;;;4944555;29;20024;-69
2021/03/02 08:09:30;;;;;;;;;;;;;;;;;;4944212;29;19961;-69
2021/03/02 08:11:57;;;;;;;;;;;;;;;;;;4947420;28;19930;-69
2021/03/02 08:14:24;;;;;;;;;;;;;;;;;;4944970;28;20017;-70
2021/03/02 08:16:51;;;;;;;;;;;;;;;;;;4943954;28;19949;-69
2021/03/02 08:19:17;;;;;;;;;;;;;;;;;;4946457;29;20371;-69
2021/03/02 08:21:44;;;;;;;;;;;;;;;;;;4947548;28;19935;-69
2021/03/02 08:24:10;;;;;;;;;;;;;;;;;;4946035;28;20544;-70
2021/03/02 08:26:37;;;;;;;;;;;;;;;;;;4948552;29;20031;-70
2021/03/02 08:29:03;;;;;;;;;;;;;;;;;;4948197;28;19926;-67
2021/03/02 08:31:30;;;;;;;;;;;;;;;;;;4945190;28;20344;-70
2021/03/02 08:33:56;;;;;;;;;;;;;;;;;;4945436;29;19937;-70
2021/03/02 08:36:22;;;;;;;;;;;;;;;;;;4947603;28;19927;-67
2021/03/02 08:38:49;;;;;;;;;;;;;;;;;;4945240;29;20383;-68
2021/03/02 08:41:15;;;;;;;;;;;;;;;;;;4948270;28;19937;-68
2021/03/02 08:43:42;;;;;;;;;;;;;;;;;;4945295;29;19931;-68
2021/03/02 08:46:08;;;;;;;;;;;;;;;;;;4945405;28;19933;-68
2021/03/02 08:48:35;;;;;;;;;;;;;;;;;;4943011;29;20009;-68
2021/03/02 08:51:01;;;;;;;;;;;;;;;;;;4944671;29;19953;-69
2021/03/02 08:53:28;;;;;;;;;;;;;;;;;;4947532;29;19933;-67
2021/03/02 08:55:54;;;;;;;;;;;;;;;;;;4944896;29;19927;-68
2021/03/02 08:58:21;;;;;;;;;;;;;;;;;;4949193;29;19950;-66
2021/03/02 09:00:47;;;;;;;;;;;;;;;;;;4946904;28;19973;-66
2021/03/02 09:03:14;;;;;;;;;;;;;;;;;;4945551;28;20005;-67
2021/03/02 09:05:40;;;;;;;;;;;;;;;;;;4944232;29;19938;-68
2021/03/02 09:08:07;;;;;;;;;;;;;;;;;;4944427;28;20156;-68
2021/03/02 09:10:33;;;;;;;;;;;;;;;;;;4946490;28;19926;-68
2021/03/02 09:13:00;;;;;;;;;;;;;;;;;;4943121;29;20284;-67
2021/03/02 09:15:26;;;;;;;;;;;;;;;;;;4946212;28;19980;-68
2021/03/02 09:17:53;;;;;;;;;;;;;;;;;;4944813;29;20382;-68
2021/03/02 09:20:19;;;;;;;;;;;;;;;;;;4943258;28;20013;-69
2021/03/02 09:22:46;;;;;;;;;;;;;;;;;;4939137;29;19985;-68
2021/03/02 09:25:12;;;;;;;;;;;;;;;;;;4943458;28;19930;-67
2021/03/02 09:27:39;;;;;;;;;;;;;;;;;;4947127;29;20478;-69
2021/03/02 09:30:05;;;;;;;;;;;;;;;;;;4942900;28;19998;-69
2021/03/02 09:32:32;;;;;;;;;;;;;;;;;;4941202;28;19977;-69
2021/03/02 09:34:58;;;;;;;;;;;;;;;;;;4942807;29;20387;-69
2021/03/02 09:37:25;;;;;;;;;;;;;;;;;;4945325;28;19933;-68
2021/03/02 09:39:51;;;;;;;;;;;;;;;;;;4944915;29;19986;-67
2021/03/02 09:42:18;;;;;;;;;;;;;;;;;;4943176;28;20346;-68
2021/03/02 09:44:45;;;;;;;;;;;;;;;;;;4940659;29;20407;-67
2021/03/02 09:47:11;;;;;;;;;;;;;;;;;;4943508;29;19935;-66
2021/03/02 09:49:38;;;;;;;;;;;;;;;;;;4948276;28;20013;-67
2021/03/02 09:52:04;;;;;;;;;;;;;;;;;;4944176;28;20379;-69
2021/03/02 09:54:31;;;;;;;;;;;;;;;;;;4943787;29;19926;-68
2021/03/02 09:56:57;;;;;;;;;;;;;;;;;;4945213;28;19926;-69
2021/03/02 09:59:24;;;;;;;;;;;;;;;;;;4945962;29;19927;-67
2021/03/02 10:01:50;;;;;;;;;;;;;;;;;;4944635;28;19941;-66
2021/03/02 10:04:17;;;;;;;;;;;;;;;;;;4947800;29;19931;-67
2021/03/02 10:06:43;;;;;;;;;;;;;;;;;;4947225;28;19933;-66
2021/03/02 10:09:10;;;;;;;;;;;;;;;;;;4948166;29;20013;-69
2021/03/02 10:11:36;;;;;;;;;;;;;;;;;;4945567;28;19926;-68
2021/03/02 10:14:05;;;;;;;;;;;;;;;;;;4945500;29;20025;-68
2021/03/02 10:16:32;;;;;;;;;;;;;;;;;;4946748;29;19930;-68
2021/03/02 10:18:58;;;;;;;;;;;;;;;;;;4945204;28;20350;-69
2021/03/02 10:21:25;;;;;;;;;;;;;;;;;;4948205;28;19973;-69
2021/03/02 10:23:51;;;;;;;;;;;;;;;;;;4948404;28;20406;-68
2021/03/02 10:26:18;;;;;;;;;;;;;;;;;;4945809;29;19926;-69
2021/03/02 10:28:44;;;;;;;;;;;;;;;;;;4945946;29;20199;-69
2021/03/02 10:31:11;;;;;;;;;;;;;;;;;;4946220;28;20340;-68
2021/03/02 10:33:37;;;;;;;;;;;;;;;;;;4946664;28;19934;-68
2021/03/02 10:36:04;;;;;;;;;;;;;;;;;;4948667;28;19933;-69
2021/03/02 10:38:30;;;;;;;;;;;;;;;;;;4942533;28;19926;-69
2021/03/02 10:40:57;;;;;;;;;;;;;;;;;;4941383;29;19941;-70
2021/03/02 10:43:23;;;;;;;;;;;;;;;;;;4947303;29;19932;-69
2021/03/02 10:45:50;;;;;;;;;;;;;;;;;;4947125;29;19948;-70
2021/03/02 10:48:16;;;;;;;;;;;;;;;;;;4943113;29;20372;-71
2021/03/02 10:50:43;;;;;;;;;;;;;;;;;;4945656;28;19945;-69
2021/03/02 10:53:09;;;;;;;;;;;;;;;;;;4946497;28;19933;-70
2021/03/02 10:55:36;;;;;;;;;;;;;;;;;;4941899;29;19941;-69
2021/03/02 10:58:02;;;;;;;;;;;;;;;;;;4939099;29;20403;-70
2021/03/02 11:00:29;;;;;;;;;;;;;;;;;;4944161;29;20287;-71
2021/03/02 11:02:55;;;;;;;;;;;;;;;;;;4939475;28;19930;-70
2021/03/02 11:05:22;;;;;;;;;;;;;;;;;;4946186;29;19939;-70
2021/03/02 11:07:48;;;;;;;;;;;;;;;;;;4943230;29;19927;-69
2021/03/02 11:10:15;;;;;;;;;;;;;;;;;;4944954;28;19926;-70
2021/03/02 11:12:42;;;;;;;;;;;;;;;;;;4945601;28;20659;-72
2021/03/02 11:15:10;;;;;;;;;;;;;;;;;;4945248;28;19958;-68
2021/03/02 11:17:36;;;;;;;;;;;;;;;;;;4949009;28;20159;-68
2021/03/02 11:20:03;;;;;;;;;;;;;;;;;;4943605;29;19926;-72
2021/03/02 11:22:29;;;;;;;;;;;;;;;;;;4945400;28;19934;-70
2021/03/02 11:24:56;;;;;;;;;;;;;;;;;;4946190;28;20397;-71
2021/03/02 11:27:22;;;;;;;;;;;;;;;;;;4946548;28;19927;-70
2021/03/02 11:29:49;;;;;;;;;;;;;;;;;;4947234;29;19989;-70
2021/03/02 11:32:15;;;;;;;;;;;;;;;;;;4947180;28;19972;-69
2021/03/02 11:34:42;;;;;;;;;;;;;;;;;;4948605;28;20384;-70
2021/03/02 11:37:08;;;;;;;;;;;;;;;;;;4944907;28;19930;-71
2021/03/02 11:39:35;;;;;;;;;;;;;;;;;;4951489;29;19981;-70
2021/03/02 11:42:01;;;;;;;;;;;;;;;;;;4953937;29;19966;-70
2021/03/02 11:44:29;;;;;;;;;;;;;;;;;;4954649;28;19933;-68
2021/03/02 11:46:56;;;;;;;;;;;;;;;;;;4951232;29;20383;-70
2021/03/02 11:49:22;;;;;;;;;;;;;;;;;;4943481;29;19933;-69
2021/03/02 11:51:49;;;;;;;;;;;;;;;;;;4950272;28;19933;-69
2021/03/02 11:54:15;;;;;;;;;;;;;;;;;;4948231;29;20376;-66
2021/03/02 11:56:42;;;;;;;;;;;;;;;;;;4952434;29;19939;-70
2021/03/02 11:59:08;;;;;;;;;;;;;;;;;;4948703;28;19980;-70
2021/03/02 12:01:35;;;;;;;;;;;;;;;;;;4947149;28;19985;-69
2021/03/02 12:04:01;;;;;;;;;;;;;;;;;;4940852;29;19973;-70
2021/03/02 12:06:28;;;;;;;;;;;;;;;;;;4948297;29;20555;-69
2021/03/02 12:08:54;;;;;;;;;;;;;;;;;;4952699;28;20371;-70
2021/03/02 12:11:21;;;;;;;;;;;;;;;;;;4945722;28;19927;-70
2021/03/02 12:13:47;;;;;;;;;;;;;;;;;;4951677;29;19930;-69
2021/03/02 12:16:14;;;;;;;;;;;;;;;;;;4948872;28;19942;-74
2021/03/02 12:18:40;;;;;;;;;;;;;;;;;;4943692;28;20115;-71
2021/03/02 12:21:07;;;;;;;;;;;;;;;;;;4946824;28;19996;-68
2021/03/02 12:23:33;;;;;;;;;;;;;;;;;;4945417;29;19927;-69
2021/03/02 12:26:00;;;;;;;;;;;;;;;;;;4947671;28;19938;-69
2021/03/02 12:28:26;;;;;;;;;;;;;;;;;;4946473;28;19971;-69
2021/03/02 12:30:53;;;;;;;;;;;;;;;;;;4941640;28;19948;-69
2021/03/02 12:33:19;;;;;;;;;;;;;;;;;;4943032;29;19926;-70
2021/03/02 12:35:46;;;;;;;;;;;;;;;;;;4950155;29;19926;-68
2021/03/02 12:38:12;;;;;;;;;;;;;;;;;;4951839;28;19926;-66
2021/03/02 12:40:38;;;;;;;;;;;;;;;;;;4954481;29;19930;-67
2021/03/02 12:43:05;;;;;;;;;;;;;;;;;;4954326;28;20406;-67
2021/03/02 12:45:31;;;;;;;;;;;;;;;;;;4953197;28;19989;-67
2021/03/02 12:47:58;;;;;;;;;;;;;;;;;;4952013;28;19946;-67
2021/03/02 12:50:24;;;;;;;;;;;;;;;;;;4952300;28;19937;-67
2021/03/02 12:52:51;;;;;;;;;;;;;;;;;;4952880;28;19937;-67
2021/03/02 12:55:17;;;;;;;;;;;;;;;;;;4953804;29;19926;-67
2021/03/02 12:57:44;;;;;;;;;;;;;;;;;;4954399;28;20332;-66
2021/03/02 13:00:10;;;;;;;;;;;;;;;;;;4955201;28;20021;-66
2021/03/02 13:02:37;;;;;;;;;;;;;;;;;;4946686;28;19926;-67
2021/03/02 13:05:04;;;;;;;;;;;;;;;;;;4954025;29;19949;-66
2021/03/02 13:07:30;;;;;;;;;;;;;;;;;;4956595;28;20296;-67
2021/03/02 13:09:57;;;;;;;;;;;;;;;;;;4959584;28;19926;-67
2021/03/02 13:12:23;;;;;;;;;;;;;;;;;;4956714;28;20014;-70
2021/03/02 13:14:50;;;;;;;;;;;;;;;;;;4950322;28;19933;-69
2021/03/02 13:17:16;;;;;;;;;;;;;;;;;;4945484;29;19951;-69
2021/03/02 13:19:43;;;;;;;;;;;;;;;;;;4949996;29;19928;-69
2021/03/02 13:22:11;;;;;;;;;;;;;;;;;;4943271;28;20423;-69
2021/03/02 13:24:37;;;;;;;;;;;;;;;;;;4949700;28;19945;-69
2021/03/02 13:27:03;;;;;;;;;;;;;;;;;;4945249;28;19926;-68
2021/03/02 13:29:30;;;;;;;;;;;;;;;;;;4949093;29;19934;-70
2021/03/02 13:31:56;;;;;;;;;;;;;;;;;;4947029;28;19973;-69
2021/03/02 13:34:23;;;;;;;;;;;;;;;;;;4945064;29;19926;-68
2021/03/02 13:36:49;;;;;;;;;;;;;;;;;;4946649;29;20290;-69
2021/03/02 13:39:16;;;;;;;;;;;;;;;;;;4945670;28;19974;-69
2021/03/02 13:41:42;;;;;;;;;;;;;;;;;;4943058;28;19927;-69
2021/03/02 13:44:09;;;;;;;;;;;;;;;;;;4943867;29;20301;-69
2021/03/02 13:46:36;;;;;;;;;;;;;;;;;;4944378;28;20388;-68
2021/03/02 13:49:03;;;;;;;;;;;;;;;;;;4942935;29;20038;-68
2021/03/02 13:51:29;;;;;;;;;;;;;;;;;;4945927;28;20115;-70
2021/03/02 13:53:56;;;;;;;;;;;;;;;;;;4942073;28;19972;-69
2021/03/02 13:56:22;;;;;;;;;;;;;;;;;;4939153;29;20003;-68
2021/03/02 13:58:49;;;;;;;;;;;;;;;;;;4939937;29;19927;-68
2021/03/02 14:01:15;;;;;;;;;;;;;;;;;;4941739;29;19933;-69
2021/03/02 14:03:41;;;;;;;;;;;;;;;;;;4946088;28;19958;-68
2021/03/02 14:06:08;;;;;;;;;;;;;;;;;;4941632;29;19933;-67
2021/03/02 14:08:35;;;;;;;;;;;;;;;;;;4941360;29;20465;-67
2021/03/02 14:11:01;;;;;;;;;;;;;;;;;;4946622;28;19936;-69
2021/03/02 14:13:27;;;;;;;;;;;;;;;;;;4946672;28;19927;-69
2021/03/02 14:15:54;;;;;;;;;;;;;;;;;;4948081;29;20025;-67
2021/03/02 14:18:21;;;;;;;;;;;;;;;;;;4948595;28;19960;-68
2021/03/02 14:20:48;;;;;;;;;;;;;;;;;;4942476;29;19931;-69
2021/03/02 14:23:14;;;;;;;;;;;;;;;;;;4943430;28;19927;-68
2021/03/02 14:25:41;;;;;;;;;;;;;;;;;;4948095;28;19927;-68
2021/03/02 14:28:07;;;;;;;;;;;;;;;;;;4945624;28;19973;-68
2021/03/02 14:30:34;;;;;;;;;;;;;;;;;;4945571;29;19927;-69
2021/03/02 14:33:00;;;;;;;;;;;;;;;;;;4944150;29;20426;-68
2021/03/02 14:35:27;;;;;;;;;;;;;;;;;;4942487;28;20042;-68
2021/03/02 14:37:53;;;;;;;;;;;;;;;;;;4947099;29;19983;-68
2021/03/02 14:40:20;;;;;;;;;;;;;;;;;;4945783;29;19927;-70
2021/03/02 14:42:46;;;;;;;;;;;;;;;;;;4943745;28;20552;-69
2021/03/02 14:45:13;;;;;;;;;;;;;;;;;;4947612;29;19927;-69
2021/03/02 14:47:39;;;;;;;;;;;;;;;;;;4946303;28;19931;-69
2021/03/02 14:50:07;;;;;;;;;;;;;;;;;;4947793;28;19927;-69
2021/03/02 14:52:33;;;;;;;;;;;;;;;;;;4947694;29;20021;-69
2021/03/02 14:55:00;;;;;;;;;;;;;;;;;;4947847;28;19927;-69
2021/03/02 14:57:26;;;;;;;;;;;;;;;;;;4948033;29;19934;-69
2021/03/02 14:59:53;;;;;;;;;;;;;;;;;;4947962;28;19933;-69
2021/03/02 15:02:19;;;;;;;;;;;;;;;;;;4943354;28;19977;-67
2021/03/02 15:04:46;;;;;;;;;;;;;;;;;;4950382;29;19926;-67
2021/03/02 15:07:12;;;;;;;;;;;;;;;;;;4945500;28;19938;-68
2021/03/02 15:09:39;;;;;;;;;;;;;;;;;;4943240;28;19930;-69
2021/03/02 15:12:05;;;;;;;;;;;;;;;;;;4947785;28;20007;-68
2021/03/02 15:14:32;;;;;;;;;;;;;;;;;;4950529;29;19994;-70
2021/03/02 15:16:59;;;;;;;;;;;;;;;;;;4946794;28;20455;-69
2021/03/02 15:19:25;;;;;;;;;;;;;;;;;;4942334;29;19937;-68
2021/03/02 15:21:52;;;;;;;;;;;;;;;;;;4946569;28;20447;-68
2021/03/02 15:24:18;;;;;;;;;;;;;;;;;;4954082;28;19933;-67
2021/03/02 15:26:45;;;;;;;;;;;;;;;;;;4948449;29;19935;-69
2021/03/02 15:29:17;;;;;;;;;;;;;;;;;;4954628;29;20302;-68
2021/03/02 15:31:44;;;;;;;;;;;;;;;;;;4949744;28;20280;-69
2021/03/02 15:34:10;;;;;;;;;;;;;;;;;;4949324;28;19927;-72
2021/03/02 15:36:37;;;;;;;;;;;;;;;;;;4947286;28;20411;-68
2021/03/02 15:39:03;;;;;;;;;;;;;;;;;;4949828;29;19946;-67
2021/03/02 15:41:31;;;;;;;;;;;;;;;;;;4950031;28;20423;-68
2021/03/02 15:43:57;;;;;;;;;;;;;;;;;;4954730;29;20008;-69
2021/03/02 15:46:24;;;;;;;;;;;;;;;;;;4955008;28;19930;-67
2021/03/02 15:48:50;;;;;;;;;;;;;;;;;;4949795;29;20054;-68
2021/03/02 15:51:17;;;;;;;;;;;;;;;;;;4944909;29;20327;-69
2021/03/02 15:53:43;;;;;;;;;;;;;;;;;;4946658;29;19958;-69
2021/03/02 15:56:10;;;;;;;;;;;;;;;;;;4945213;28;20351;-70
2021/03/02 15:58:36;;;;;;;;;;;;;;;;;;4949979;29;19985;-68
2021/03/02 16:01:03;;;;;;;;;;;;;;;;;;4949179;28;20368;-70
2021/03/02 16:03:29;;;;;;;;;;;;;;;;;;4943245;28;19927;-69
2021/03/02 16:05:56;;;;;;;;;;;;;;;;;;4948971;29;19931;-71
2021/03/02 16:08:22;;;;;;;;;;;;;;;;;;4941916;29;19933;-69
2021/03/02 16:10:48;;;;;;;;;;;;;;;;;;4950890;29;19961;-68
2021/03/02 16:13:15;;;;;;;;;;;;;;;;;;4950049;28;19933;-69
2021/03/02 16:15:43;;;;;;;;;;;;;;;;;;4951079;29;19953;-69
2021/03/02 16:18:10;;;;;;;;;;;;;;;;;;4947531;29;19926;-67
2021/03/02 16:20:36;;;;;;;;;;;;;;;;;;4948437;29;19926;-68
2021/03/02 16:23:03;;;;;;;;;;;;;;;;;;4948809;29;19927;-68
2021/03/02 16:25:29;;;;;;;;;;;;;;;;;;4946061;28;19934;-67
2021/03/02 16:27:56;;;;;;;;;;;;;;;;;;4945058;29;19926;-68
2021/03/02 16:30:22;;;;;;;;;;;;;;;;;;4944767;28;19926;-69
2021/03/02 16:32:49;;;;;;;;;;;;;;;;;;4943062;28;19978;-68
2021/03/02 16:35:15;;;;;;;;;;;;;;;;;;4946410;29;19927;-68
2021/03/02 16:37:42;;;;;;;;;;;;;;;;;;4943097;28;20007;-68
2021/03/02 16:40:08;;;;;;;;;;;;;;;;;;4947942;29;20403;-68